Aviation Digital Data Service (ADDS)

Output produced by METARs form (0136 UTC 23 November 2017)
found at http://www.aviationweather.gov/adds/metars/
 
HDAM 222100Z 2300/2324 12006KT 9999 SCT020 SCT030 
     BECMG 2303/2306 08010KT SCT023